sensor_id;sensor_type;location;lat;lon;timestamp;P1;durP1;ratioP1;P2;durP2;ratioP2
24585;SDS011;12743;52.262;6.172;2023-01-10T00:00:29;21.23;;;4.93;;
24585;SDS011;12743;52.262;6.172;2023-01-10T00:03:03;13.82;;;2.35;;
24585;SDS011;12743;52.262;6.172;2023-01-10T00:05:33;13.02;;;2.42;;
24585;SDS011;12743;52.262;6.172;2023-01-10T00:08:01;12.95;;;2.15;;
24585;SDS011;12743;52.262;6.172;2023-01-10T00:10:29;10.52;;;1.83;;
24585;SDS011;12743;52.262;6.172;2023-01-10T00:12:56;11.30;;;1.60;;
24585;SDS011;12743;52.262;6.172;2023-01-10T00:15:42;13.73;;;1.73;;
24585;SDS011;12743;52.262;6.172;2023-01-10T00:18:09;17.83;;;2.20;;
24585;SDS011;12743;52.262;6.172;2023-01-10T00:20:36;15.30;;;2.00;;
24585;SDS011;12743;52.262;6.172;2023-01-10T00:23:02;14.05;;;2.42;;
24585;SDS011;12743;52.262;6.172;2023-01-10T00:25:29;15.85;;;2.10;;
24585;SDS011;12743;52.262;6.172;2023-01-10T00:27:58;11.15;;;1.70;;
24585;SDS011;12743;52.262;6.172;2023-01-10T00:30:36;19.43;;;2.10;;
24585;SDS011;12743;52.262;6.172;2023-01-10T00:33:04;19.80;;;1.95;;
24585;SDS011;12743;52.262;6.172;2023-01-10T00:35:32;11.15;;;1.55;;
24585;SDS011;12743;52.262;6.172;2023-01-10T00:37:59;13.30;;;1.63;;
24585;SDS011;12743;52.262;6.172;2023-01-10T00:40:34;18.45;;;2.00;;
24585;SDS011;12743;52.262;6.172;2023-01-10T00:43:01;13.83;;;2.07;;
24585;SDS011;12743;52.262;6.172;2023-01-10T00:45:46;14.35;;;2.30;;
24585;SDS011;12743;52.262;6.172;2023-01-10T00:48:13;14.27;;;1.90;;
24585;SDS011;12743;52.262;6.172;2023-01-10T00:50:41;15.02;;;1.92;;
24585;SDS011;12743;52.262;6.172;2023-01-10T00:53:08;11.63;;;1.65;;
24585;SDS011;12743;52.262;6.172;2023-01-10T00:55:35;16.17;;;2.43;;
24585;SDS011;12743;52.262;6.172;2023-01-10T00:58:02;15.68;;;1.85;;
24585;SDS011;12743;52.262;6.172;2023-01-10T01:00:28;9.10;;;1.60;;
24585;SDS011;12743;52.262;6.172;2023-01-10T01:02:55;11.32;;;1.63;;
24585;SDS011;12743;52.262;6.172;2023-01-10T01:05:22;17.58;;;1.55;;
24585;SDS011;12743;52.262;6.172;2023-01-10T01:07:51;13.40;;;1.37;;
24585;SDS011;12743;52.262;6.172;2023-01-10T01:10:18;10.95;;;1.55;;
24585;SDS011;12743;52.262;6.172;2023-01-10T01:12:54;11.77;;;1.42;;
24585;SDS011;12743;52.262;6.172;2023-01-10T01:15:22;10.57;;;1.70;;
24585;SDS011;12743;52.262;6.172;2023-01-10T01:17:49;17.50;;;1.55;;
24585;SDS011;12743;52.262;6.172;2023-01-10T01:20:16;17.10;;;1.73;;
24585;SDS011;12743;52.262;6.172;2023-01-10T01:22:43;9.27;;;1.40;;
24585;SDS011;12743;52.262;6.172;2023-01-10T01:25:09;12.48;;;1.45;;
24585;SDS011;12743;52.262;6.172;2023-01-10T01:27:36;12.98;;;1.95;;
24585;SDS011;12743;52.262;6.172;2023-01-10T01:30:04;13.15;;;1.50;;
24585;SDS011;12743;52.262;6.172;2023-01-10T01:32:32;14.10;;;1.40;;
24585;SDS011;12743;52.262;6.172;2023-01-10T01:34:59;15.38;;;1.85;;
24585;SDS011;12743;52.262;6.172;2023-01-10T01:37:25;11.73;;;1.73;;
24585;SDS011;12743;52.262;6.172;2023-01-10T01:39:52;14.95;;;1.65;;
24585;SDS011;12743;52.262;6.172;2023-01-10T01:42:20;14.85;;;1.27;;
24585;SDS011;12743;52.262;6.172;2023-01-10T01:45:30;10.63;;;1.73;;
24585;SDS011;12743;52.262;6.172;2023-01-10T01:48:00;13.10;;;1.40;;
24585;SDS011;12743;52.262;6.172;2023-01-10T01:50:35;9.95;;;1.98;;
24585;SDS011;12743;52.262;6.172;2023-01-10T01:53:05;12.98;;;1.55;;
24585;SDS011;12743;52.262;6.172;2023-01-10T01:55:37;13.38;;;1.65;;
24585;SDS011;12743;52.262;6.172;2023-01-10T01:58:05;18.58;;;1.77;;
24585;SDS011;12743;52.262;6.172;2023-01-10T02:00:38;20.15;;;1.70;;
24585;SDS011;12743;52.262;6.172;2023-01-10T02:03:04;12.05;;;1.50;;
24585;SDS011;12743;52.262;6.172;2023-01-10T02:05:32;10.95;;;1.63;;
24585;SDS011;12743;52.262;6.172;2023-01-10T02:08:03;10.57;;;1.30;;
24585;SDS011;12743;52.262;6.172;2023-01-10T02:13:21;12.90;;;1.88;;
24585;SDS011;12743;52.262;6.172;2023-01-10T02:15:50;8.70;;;1.20;;
24585;SDS011;12743;52.262;6.172;2023-01-10T02:18:17;12.93;;;1.33;;
24585;SDS011;12743;52.262;6.172;2023-01-10T02:26:44;12.93;;;1.35;;
24585;SDS011;12743;52.262;6.172;2023-01-10T02:29:17;15.60;;;1.40;;
24585;SDS011;12743;52.262;6.172;2023-01-10T02:34:52;12.55;;;1.42;;
24585;SDS011;12743;52.262;6.172;2023-01-10T02:37:48;12.67;;;1.20;;
24585;SDS011;12743;52.262;6.172;2023-01-10T02:40:23;13.38;;;1.45;;
24585;SDS011;12743;52.262;6.172;2023-01-10T02:43:16;17.90;;;1.48;;
24585;SDS011;12743;52.262;6.172;2023-01-10T02:45:53;18.17;;;2.10;;
24585;SDS011;12743;52.262;6.172;2023-01-10T02:48:24;13.43;;;1.60;;
24585;SDS011;12743;52.262;6.172;2023-01-10T02:50:52;10.90;;;1.33;;
24585;SDS011;12743;52.262;6.172;2023-01-10T02:56:03;14.23;;;1.60;;
24585;SDS011;12743;52.262;6.172;2023-01-10T03:07:18;13.93;;;1.98;;
24585;SDS011;12743;52.262;6.172;2023-01-10T03:09:57;13.85;;;1.17;;
24585;SDS011;12743;52.262;6.172;2023-01-10T03:12:32;11.85;;;1.08;;
24585;SDS011;12743;52.262;6.172;2023-01-10T03:15:14;14.52;;;1.23;;
24585;SDS011;12743;52.262;6.172;2023-01-10T03:17:45;15.40;;;1.40;;
24585;SDS011;12743;52.262;6.172;2023-01-10T03:20:14;21.35;;;1.65;;
24585;SDS011;12743;52.262;6.172;2023-01-10T03:22:45;11.82;;;1.52;;
24585;SDS011;12743;52.262;6.172;2023-01-10T03:25:13;17.90;;;1.70;;
24585;SDS011;12743;52.262;6.172;2023-01-10T03:30:21;15.70;;;1.40;;
24585;SDS011;12743;52.262;6.172;2023-01-10T03:32:53;15.05;;;1.48;;
24585;SDS011;12743;52.262;6.172;2023-01-10T03:35:21;9.77;;;1.08;;
24585;SDS011;12743;52.262;6.172;2023-01-10T03:38:12;10.05;;;1.20;;
24585;SDS011;12743;52.262;6.172;2023-01-10T03:41:10;15.85;;;2.13;;
24585;SDS011;12743;52.262;6.172;2023-01-10T03:43:51;14.70;;;2.10;;
24585;SDS011;12743;52.262;6.172;2023-01-10T03:46:43;15.07;;;1.23;;
24585;SDS011;12743;52.262;6.172;2023-01-10T03:49:14;14.40;;;1.40;;
24585;SDS011;12743;52.262;6.172;2023-01-10T03:51:43;13.43;;;1.35;;
24585;SDS011;12743;52.262;6.172;2023-01-10T03:54:10;18.67;;;2.22;;
24585;SDS011;12743;52.262;6.172;2023-01-10T03:56:44;13.57;;;1.52;;
24585;SDS011;12743;52.262;6.172;2023-01-10T03:59:11;17.98;;;2.03;;
24585;SDS011;12743;52.262;6.172;2023-01-10T04:01:38;13.13;;;1.20;;
24585;SDS011;12743;52.262;6.172;2023-01-10T04:04:05;12.32;;;1.23;;
24585;SDS011;12743;52.262;6.172;2023-01-10T04:06:31;11.15;;;1.42;;
24585;SDS011;12743;52.262;6.172;2023-01-10T04:08:58;16.53;;;1.37;;
24585;SDS011;12743;52.262;6.172;2023-01-10T04:11:25;16.77;;;1.30;;
24585;SDS011;12743;52.262;6.172;2023-01-10T04:13:51;16.55;;;1.83;;
24585;SDS011;12743;52.262;6.172;2023-01-10T04:16:18;13.50;;;1.40;;
24585;SDS011;12743;52.262;6.172;2023-01-10T04:18:45;15.30;;;2.60;;
24585;SDS011;12743;52.262;6.172;2023-01-10T04:21:11;16.63;;;1.73;;
24585;SDS011;12743;52.262;6.172;2023-01-10T04:23:38;17.63;;;1.42;;
24585;SDS011;12743;52.262;6.172;2023-01-10T04:26:05;22.33;;;2.10;;
24585;SDS011;12743;52.262;6.172;2023-01-10T04:28:31;16.23;;;1.48;;
24585;SDS011;12743;52.262;6.172;2023-01-10T04:30:58;15.73;;;2.30;;
24585;SDS011;12743;52.262;6.172;2023-01-10T04:33:24;20.57;;;1.80;;
24585;SDS011;12743;52.262;6.172;2023-01-10T04:35:51;11.90;;;1.40;;
24585;SDS011;12743;52.262;6.172;2023-01-10T04:38:17;14.23;;;1.27;;
24585;SDS011;12743;52.262;6.172;2023-01-10T04:40:50;16.88;;;1.90;;
24585;SDS011;12743;52.262;6.172;2023-01-10T04:43:18;15.18;;;1.30;;
24585;SDS011;12743;52.262;6.172;2023-01-10T04:45:45;19.70;;;2.17;;
24585;SDS011;12743;52.262;6.172;2023-01-10T04:48:11;18.08;;;1.42;;
24585;SDS011;12743;52.262;6.172;2023-01-10T04:50:38;18.23;;;2.70;;
24585;SDS011;12743;52.262;6.172;2023-01-10T04:53:04;12.43;;;1.60;;
24585;SDS011;12743;52.262;6.172;2023-01-10T04:55:31;20.58;;;2.20;;
24585;SDS011;12743;52.262;6.172;2023-01-10T04:57:58;12.37;;;1.10;;
24585;SDS011;12743;52.262;6.172;2023-01-10T05:00:26;12.70;;;1.35;;
24585;SDS011;12743;52.262;6.172;2023-01-10T05:02:56;13.80;;;1.48;;
24585;SDS011;12743;52.262;6.172;2023-01-10T05:05:23;21.40;;;1.80;;
24585;SDS011;12743;52.262;6.172;2023-01-10T05:07:50;15.32;;;1.73;;
24585;SDS011;12743;52.262;6.172;2023-01-10T05:10:16;20.13;;;1.60;;
24585;SDS011;12743;52.262;6.172;2023-01-10T05:12:44;14.13;;;2.13;;
24585;SDS011;12743;52.262;6.172;2023-01-10T05:15:11;13.23;;;1.55;;
24585;SDS011;12743;52.262;6.172;2023-01-10T05:17:38;21.55;;;1.77;;
24585;SDS011;12743;52.262;6.172;2023-01-10T05:20:04;14.85;;;1.83;;
24585;SDS011;12743;52.262;6.172;2023-01-10T05:22:31;11.57;;;1.43;;
24585;SDS011;12743;52.262;6.172;2023-01-10T05:24:59;16.67;;;1.83;;
24585;SDS011;12743;52.262;6.172;2023-01-10T05:27:25;17.13;;;2.30;;
24585;SDS011;12743;52.262;6.172;2023-01-10T05:29:52;14.45;;;1.45;;
24585;SDS011;12743;52.262;6.172;2023-01-10T05:32:19;12.45;;;1.63;;
24585;SDS011;12743;52.262;6.172;2023-01-10T05:34:45;13.27;;;2.33;;
24585;SDS011;12743;52.262;6.172;2023-01-10T05:37:12;17.00;;;1.88;;
24585;SDS011;12743;52.262;6.172;2023-01-10T05:39:38;12.27;;;1.67;;
24585;SDS011;12743;52.262;6.172;2023-01-10T05:42:06;17.73;;;3.28;;
24585;SDS011;12743;52.262;6.172;2023-01-10T05:44:33;18.40;;;1.83;;
24585;SDS011;12743;52.262;6.172;2023-01-10T05:46:59;16.70;;;2.85;;
24585;SDS011;12743;52.262;6.172;2023-01-10T05:49:26;16.20;;;2.40;;
24585;SDS011;12743;52.262;6.172;2023-01-10T05:51:52;15.95;;;2.72;;
24585;SDS011;12743;52.262;6.172;2023-01-10T05:54:19;21.85;;;2.45;;
24585;SDS011;12743;52.262;6.172;2023-01-10T05:56:45;19.60;;;2.67;;
24585;SDS011;12743;52.262;6.172;2023-01-10T05:59:12;16.73;;;2.10;;
24585;SDS011;12743;52.262;6.172;2023-01-10T06:01:53;17.27;;;2.70;;
24585;SDS011;12743;52.262;6.172;2023-01-10T06:04:19;24.55;;;2.75;;
24585;SDS011;12743;52.262;6.172;2023-01-10T06:06:46;15.13;;;2.20;;
24585;SDS011;12743;52.262;6.172;2023-01-10T06:09:12;19.98;;;2.38;;
24585;SDS011;12743;52.262;6.172;2023-01-10T06:11:39;13.63;;;2.57;;
24585;SDS011;12743;52.262;6.172;2023-01-10T06:14:05;14.13;;;2.30;;
24585;SDS011;12743;52.262;6.172;2023-01-10T06:16:32;22.42;;;3.33;;
24585;SDS011;12743;52.262;6.172;2023-01-10T06:18:59;21.15;;;3.28;;
24585;SDS011;12743;52.262;6.172;2023-01-10T06:21:26;21.27;;;2.83;;
24585;SDS011;12743;52.262;6.172;2023-01-10T06:23:52;21.77;;;2.30;;
24585;SDS011;12743;52.262;6.172;2023-01-10T06:26:19;15.18;;;2.90;;
24585;SDS011;12743;52.262;6.172;2023-01-10T06:28:45;23.55;;;4.25;;
24585;SDS011;12743;52.262;6.172;2023-01-10T06:31:12;21.65;;;3.53;;
24585;SDS011;12743;52.262;6.172;2023-01-10T06:33:40;17.60;;;2.72;;
24585;SDS011;12743;52.262;6.172;2023-01-10T06:36:09;19.77;;;2.60;;
24585;SDS011;12743;52.262;6.172;2023-01-10T06:38:35;29.75;;;3.35;;
24585;SDS011;12743;52.262;6.172;2023-01-10T06:41:02;14.75;;;2.83;;
24585;SDS011;12743;52.262;6.172;2023-01-10T06:43:39;17.55;;;2.67;;
24585;SDS011;12743;52.262;6.172;2023-01-10T06:46:06;19.38;;;4.18;;
24585;SDS011;12743;52.262;6.172;2023-01-10T06:48:35;14.27;;;2.30;;
24585;SDS011;12743;52.262;6.172;2023-01-10T06:51:03;21.30;;;3.55;;
24585;SDS011;12743;52.262;6.172;2023-01-10T06:53:30;23.10;;;2.58;;
24585;SDS011;12743;52.262;6.172;2023-01-10T06:55:57;18.25;;;2.88;;
24585;SDS011;12743;52.262;6.172;2023-01-10T06:58:24;19.83;;;2.40;;
24585;SDS011;12743;52.262;6.172;2023-01-10T07:00:50;25.33;;;3.28;;
24585;SDS011;12743;52.262;6.172;2023-01-10T07:03:17;17.30;;;3.00;;
24585;SDS011;12743;52.262;6.172;2023-01-10T07:05:44;17.58;;;2.95;;
24585;SDS011;12743;52.262;6.172;2023-01-10T07:08:10;22.27;;;3.30;;
24585;SDS011;12743;52.262;6.172;2023-01-10T07:10:40;21.42;;;3.75;;
24585;SDS011;12743;52.262;6.172;2023-01-10T07:13:07;18.13;;;2.90;;
24585;SDS011;12743;52.262;6.172;2023-01-10T07:15:34;25.83;;;3.30;;
24585;SDS011;12743;52.262;6.172;2023-01-10T07:18:01;24.70;;;4.43;;
24585;SDS011;12743;52.262;6.172;2023-01-10T07:20:28;18.35;;;4.30;;
24585;SDS011;12743;52.262;6.172;2023-01-10T07:22:55;24.13;;;4.50;;
24585;SDS011;12743;52.262;6.172;2023-01-10T07:25:23;26.43;;;4.33;;
24585;SDS011;12743;52.262;6.172;2023-01-10T07:27:51;15.73;;;4.10;;
24585;SDS011;12743;52.262;6.172;2023-01-10T07:30:20;16.42;;;3.63;;
24585;SDS011;12743;52.262;6.172;2023-01-10T07:32:56;23.90;;;5.05;;
24585;SDS011;12743;52.262;6.172;2023-01-10T07:35:23;21.98;;;5.63;;
24585;SDS011;12743;52.262;6.172;2023-01-10T07:37:50;24.93;;;4.50;;
24585;SDS011;12743;52.262;6.172;2023-01-10T07:40:17;22.58;;;5.00;;
24585;SDS011;12743;52.262;6.172;2023-01-10T07:42:43;24.92;;;4.95;;
24585;SDS011;12743;52.262;6.172;2023-01-10T07:45:10;19.52;;;4.50;;
24585;SDS011;12743;52.262;6.172;2023-01-10T07:47:38;24.25;;;4.75;;
24585;SDS011;12743;52.262;6.172;2023-01-10T07:50:04;23.27;;;4.53;;
24585;SDS011;12743;52.262;6.172;2023-01-10T07:52:32;23.85;;;5.03;;
24585;SDS011;12743;52.262;6.172;2023-01-10T07:54:58;23.77;;;4.60;;
24585;SDS011;12743;52.262;6.172;2023-01-10T07:57:25;32.40;;;5.10;;
24585;SDS011;12743;52.262;6.172;2023-01-10T07:59:52;21.73;;;4.72;;
24585;SDS011;12743;52.262;6.172;2023-01-10T08:02:18;23.13;;;5.37;;
24585;SDS011;12743;52.262;6.172;2023-01-10T08:04:45;21.70;;;4.68;;
24585;SDS011;12743;52.262;6.172;2023-01-10T08:07:11;24.98;;;4.90;;
24585;SDS011;12743;52.262;6.172;2023-01-10T08:09:38;23.00;;;4.22;;
24585;SDS011;12743;52.262;6.172;2023-01-10T08:12:04;20.38;;;4.78;;
24585;SDS011;12743;52.262;6.172;2023-01-10T08:14:31;26.40;;;4.80;;
24585;SDS011;12743;52.262;6.172;2023-01-10T08:16:57;17.60;;;3.92;;
24585;SDS011;12743;52.262;6.172;2023-01-10T08:19:24;26.13;;;4.93;;
24585;SDS011;12743;52.262;6.172;2023-01-10T08:21:51;22.70;;;4.53;;
24585;SDS011;12743;52.262;6.172;2023-01-10T08:24:17;27.85;;;4.55;;
24585;SDS011;12743;52.262;6.172;2023-01-10T08:26:44;19.03;;;3.80;;
24585;SDS011;12743;52.262;6.172;2023-01-10T08:29:10;24.13;;;4.68;;
24585;SDS011;12743;52.262;6.172;2023-01-10T08:31:39;22.25;;;4.07;;
24585;SDS011;12743;52.262;6.172;2023-01-10T08:34:06;29.90;;;4.00;;
24585;SDS011;12743;52.262;6.172;2023-01-10T08:36:32;22.38;;;3.58;;
24585;SDS011;12743;52.262;6.172;2023-01-10T08:38:59;23.27;;;4.27;;
24585;SDS011;12743;52.262;6.172;2023-01-10T08:41:25;28.20;;;4.05;;
24585;SDS011;12743;52.262;6.172;2023-01-10T08:43:52;26.60;;;4.40;;
24585;SDS011;12743;52.262;6.172;2023-01-10T08:46:18;24.50;;;3.63;;
24585;SDS011;12743;52.262;6.172;2023-01-10T08:48:45;24.92;;;3.90;;
24585;SDS011;12743;52.262;6.172;2023-01-10T08:51:15;24.00;;;3.50;;
24585;SDS011;12743;52.262;6.172;2023-01-10T08:53:42;25.75;;;4.00;;
24585;SDS011;12743;52.262;6.172;2023-01-10T08:56:09;23.25;;;3.03;;
24585;SDS011;12743;52.262;6.172;2023-01-10T08:58:36;25.98;;;4.50;;
24585;SDS011;12743;52.262;6.172;2023-01-10T09:01:03;20.40;;;3.97;;
24585;SDS011;12743;52.262;6.172;2023-01-10T09:03:30;22.53;;;4.97;;
24585;SDS011;12743;52.262;6.172;2023-01-10T09:05:58;27.27;;;4.93;;
24585;SDS011;12743;52.262;6.172;2023-01-10T09:08:25;35.35;;;5.88;;
24585;SDS011;12743;52.262;6.172;2023-01-10T09:10:52;24.27;;;5.28;;
24585;SDS011;12743;52.262;6.172;2023-01-10T09:13:19;25.15;;;4.78;;
24585;SDS011;12743;52.262;6.172;2023-01-10T09:15:45;27.40;;;4.87;;
24585;SDS011;12743;52.262;6.172;2023-01-10T09:18:12;19.00;;;4.65;;
24585;SDS011;12743;52.262;6.172;2023-01-10T09:20:40;21.70;;;3.88;;
24585;SDS011;12743;52.262;6.172;2023-01-10T09:23:11;20.02;;;4.03;;
24585;SDS011;12743;52.262;6.172;2023-01-10T09:25:44;21.20;;;4.05;;
24585;SDS011;12743;52.262;6.172;2023-01-10T09:28:13;24.33;;;4.23;;
24585;SDS011;12743;52.262;6.172;2023-01-10T09:30:40;22.45;;;3.65;;
24585;SDS011;12743;52.262;6.172;2023-01-10T09:33:07;25.38;;;3.28;;
24585;SDS011;12743;52.262;6.172;2023-01-10T09:35:34;21.85;;;2.95;;
24585;SDS011;12743;52.262;6.172;2023-01-10T09:38:03;18.45;;;2.78;;
24585;SDS011;12743;52.262;6.172;2023-01-10T09:52:09;20.77;;;4.45;;
24585;SDS011;12743;52.262;6.172;2023-01-10T09:54:45;17.70;;;3.37;;
24585;SDS011;12743;52.262;6.172;2023-01-10T09:57:15;21.10;;;2.63;;
24585;SDS011;12743;52.262;6.172;2023-01-10T09:59:44;20.27;;;2.97;;
24585;SDS011;12743;52.262;6.172;2023-01-10T10:04:48;19.70;;;1.95;;
24585;SDS011;12743;52.262;6.172;2023-01-10T10:07:36;20.23;;;2.80;;
24585;SDS011;12743;52.262;6.172;2023-01-10T10:10:04;22.85;;;3.15;;
24585;SDS011;12743;52.262;6.172;2023-01-10T10:12:40;21.73;;;2.92;;
24585;SDS011;12743;52.262;6.172;2023-01-10T10:15:15;24.77;;;2.65;;
24585;SDS011;12743;52.262;6.172;2023-01-10T10:23:34;23.42;;;2.88;;
24585;SDS011;12743;52.262;6.172;2023-01-10T10:26:06;22.83;;;3.28;;
24585;SDS011;12743;52.262;6.172;2023-01-10T10:34:33;21.20;;;2.87;;
24585;SDS011;12743;52.262;6.172;2023-01-10T10:39:54;21.77;;;3.40;;
24585;SDS011;12743;52.262;6.172;2023-01-10T10:42:25;18.20;;;3.67;;
24585;SDS011;12743;52.262;6.172;2023-01-10T10:47:22;19.00;;;2.70;;
24585;SDS011;12743;52.262;6.172;2023-01-10T10:49:50;22.80;;;3.30;;
24585;SDS011;12743;52.262;6.172;2023-01-10T10:52:29;21.70;;;4.13;;
24585;SDS011;12743;52.262;6.172;2023-01-10T10:55:00;23.40;;;3.63;;
24585;SDS011;12743;52.262;6.172;2023-01-10T10:57:29;21.52;;;3.13;;
24585;SDS011;12743;52.262;6.172;2023-01-10T11:00:04;27.23;;;2.60;;
24585;SDS011;12743;52.262;6.172;2023-01-10T11:02:42;21.30;;;2.80;;
24585;SDS011;12743;52.262;6.172;2023-01-10T11:05:17;19.40;;;2.55;;
24585;SDS011;12743;52.262;6.172;2023-01-10T11:07:47;18.70;;;2.42;;
24585;SDS011;12743;52.262;6.172;2023-01-10T11:10:21;27.73;;;3.20;;
24585;SDS011;12743;52.262;6.172;2023-01-10T11:15:44;23.13;;;2.60;;
24585;SDS011;12743;52.262;6.172;2023-01-10T11:18:13;19.52;;;2.65;;
24585;SDS011;12743;52.262;6.172;2023-01-10T11:20:52;21.85;;;2.75;;
24585;SDS011;12743;52.262;6.172;2023-01-10T11:26:21;23.37;;;3.10;;
24585;SDS011;12743;52.262;6.172;2023-01-10T11:28:52;25.30;;;3.53;;
24585;SDS011;12743;52.262;6.172;2023-01-10T11:31:39;23.40;;;3.65;;
24585;SDS011;12743;52.262;6.172;2023-01-10T11:34:20;23.05;;;2.63;;
24585;SDS011;12743;52.262;6.172;2023-01-10T11:36:51;20.40;;;2.85;;
24585;SDS011;12743;52.262;6.172;2023-01-10T11:39:19;20.00;;;2.73;;
24585;SDS011;12743;52.262;6.172;2023-01-10T11:41:45;18.73;;;2.95;;
24585;SDS011;12743;52.262;6.172;2023-01-10T11:44:15;21.10;;;3.17;;
24585;SDS011;12743;52.262;6.172;2023-01-10T11:46:44;22.15;;;2.72;;
24585;SDS011;12743;52.262;6.172;2023-01-10T11:49:12;19.58;;;3.90;;
24585;SDS011;12743;52.262;6.172;2023-01-10T11:51:48;16.13;;;2.30;;
24585;SDS011;12743;52.262;6.172;2023-01-10T11:54:21;27.38;;;3.40;;
24585;SDS011;12743;52.262;6.172;2023-01-10T11:56:55;21.95;;;3.00;;
24585;SDS011;12743;52.262;6.172;2023-01-10T11:59:22;17.80;;;2.90;;
24585;SDS011;12743;52.262;6.172;2023-01-10T12:01:53;22.90;;;2.47;;
24585;SDS011;12743;52.262;6.172;2023-01-10T12:04:21;15.00;;;2.00;;
24585;SDS011;12743;52.262;6.172;2023-01-10T12:06:50;20.25;;;3.17;;
24585;SDS011;12743;52.262;6.172;2023-01-10T12:12:15;21.40;;;2.47;;
24585;SDS011;12743;52.262;6.172;2023-01-10T12:14:50;19.27;;;2.83;;
24585;SDS011;12743;52.262;6.172;2023-01-10T12:19:53;24.10;;;2.90;;
24585;SDS011;12743;52.262;6.172;2023-01-10T12:22:26;20.83;;;2.90;;
24585;SDS011;12743;52.262;6.172;2023-01-10T12:25:09;20.65;;;1.98;;
24585;SDS011;12743;52.262;6.172;2023-01-10T12:27:44;19.83;;;2.05;;
24585;SDS011;12743;52.262;6.172;2023-01-10T12:30:20;21.17;;;2.57;;
24585;SDS011;12743;52.262;6.172;2023-01-10T12:32:55;16.90;;;2.65;;
24585;SDS011;12743;52.262;6.172;2023-01-10T12:41:52;21.42;;;2.70;;
24585;SDS011;12743;52.262;6.172;2023-01-10T12:44:42;19.90;;;1.87;;
24585;SDS011;12743;52.262;6.172;2023-01-10T12:47:16;27.98;;;2.58;;
24585;SDS011;12743;52.262;6.172;2023-01-10T12:55:59;19.00;;;2.75;;
24585;SDS011;12743;52.262;6.172;2023-01-10T12:58:34;17.17;;;2.43;;
24585;SDS011;12743;52.262;6.172;2023-01-10T13:01:05;24.35;;;2.15;;
24585;SDS011;12743;52.262;6.172;2023-01-10T13:03:33;21.05;;;2.92;;
24585;SDS011;12743;52.262;6.172;2023-01-10T13:06:00;18.95;;;3.00;;
24585;SDS011;12743;52.262;6.172;2023-01-10T13:08:28;20.15;;;2.50;;
24585;SDS011;12743;52.262;6.172;2023-01-10T13:10:58;14.53;;;2.60;;
24585;SDS011;12743;52.262;6.172;2023-01-10T13:21:31;15.38;;;1.60;;
24585;SDS011;12743;52.262;6.172;2023-01-10T13:24:01;23.33;;;3.10;;
24585;SDS011;12743;52.262;6.172;2023-01-10T13:27:03;18.00;;;2.28;;
24585;SDS011;12743;52.262;6.172;2023-01-10T13:29:25;22.75;;;2.75;;
24585;SDS011;12743;52.262;6.172;2023-01-10T13:31:52;17.33;;;2.28;;
24585;SDS011;12743;52.262;6.172;2023-01-10T13:34:33;20.13;;;2.40;;
24585;SDS011;12743;52.262;6.172;2023-01-10T13:37:11;19.70;;;2.00;;
24585;SDS011;12743;52.262;6.172;2023-01-10T13:39:43;15.27;;;2.55;;
24585;SDS011;12743;52.262;6.172;2023-01-10T13:42:22;16.27;;;2.33;;
24585;SDS011;12743;52.262;6.172;2023-01-10T13:45:14;18.67;;;2.15;;
24585;SDS011;12743;52.262;6.172;2023-01-10T13:52:48;26.23;;;2.38;;
24585;SDS011;12743;52.262;6.172;2023-01-10T13:57:54;16.58;;;2.63;;
24585;SDS011;12743;52.262;6.172;2023-01-10T14:00:24;20.80;;;2.60;;
24585;SDS011;12743;52.262;6.172;2023-01-10T14:06:18;19.52;;;2.40;;
24585;SDS011;12743;52.262;6.172;2023-01-10T14:08:49;16.35;;;1.52;;
24585;SDS011;12743;52.262;6.172;2023-01-10T14:11:18;26.70;;;3.88;;
24585;SDS011;12743;52.262;6.172;2023-01-10T14:13:49;15.35;;;2.55;;
24585;SDS011;12743;52.262;6.172;2023-01-10T14:16:53;19.70;;;2.57;;
24585;SDS011;12743;52.262;6.172;2023-01-10T14:19:25;18.35;;;2.28;;
24585;SDS011;12743;52.262;6.172;2023-01-10T14:21:55;16.25;;;2.47;;
24585;SDS011;12743;52.262;6.172;2023-01-10T14:24:39;18.15;;;2.63;;
24585;SDS011;12743;52.262;6.172;2023-01-10T14:27:12;20.77;;;2.67;;
24585;SDS011;12743;52.262;6.172;2023-01-10T14:29:44;19.97;;;2.40;;
24585;SDS011;12743;52.262;6.172;2023-01-10T14:32:29;18.92;;;2.50;;
24585;SDS011;12743;52.262;6.172;2023-01-10T14:35:00;17.85;;;2.60;;
24585;SDS011;12743;52.262;6.172;2023-01-10T14:37:32;11.70;;;3.17;;
24585;SDS011;12743;52.262;6.172;2023-01-10T14:40:09;17.02;;;2.78;;
24585;SDS011;12743;52.262;6.172;2023-01-10T14:42:45;23.77;;;3.20;;
24585;SDS011;12743;52.262;6.172;2023-01-10T14:45:29;21.60;;;2.72;;
24585;SDS011;12743;52.262;6.172;2023-01-10T14:48:16;17.95;;;2.20;;
24585;SDS011;12743;52.262;6.172;2023-01-10T14:50:47;23.80;;;2.22;;
24585;SDS011;12743;52.262;6.172;2023-01-10T14:53:27;19.00;;;2.42;;
24585;SDS011;12743;52.262;6.172;2023-01-10T14:55:55;19.93;;;2.70;;
24585;SDS011;12743;52.262;6.172;2023-01-10T14:58:21;20.65;;;2.38;;
24585;SDS011;12743;52.262;6.172;2023-01-10T15:00:49;15.82;;;1.70;;
24585;SDS011;12743;52.262;6.172;2023-01-10T15:03:17;17.67;;;2.92;;
24585;SDS011;12743;52.262;6.172;2023-01-10T15:05:49;15.02;;;2.45;;
24585;SDS011;12743;52.262;6.172;2023-01-10T15:10:53;14.65;;;2.00;;
24585;SDS011;12743;52.262;6.172;2023-01-10T15:13:25;15.60;;;2.28;;
24585;SDS011;12743;52.262;6.172;2023-01-10T15:15:53;16.50;;;1.95;;
24585;SDS011;12743;52.262;6.172;2023-01-10T15:18:32;17.77;;;2.90;;
24585;SDS011;12743;52.262;6.172;2023-01-10T15:21:05;23.50;;;3.07;;
24585;SDS011;12743;52.262;6.172;2023-01-10T15:23:36;14.68;;;2.13;;
24585;SDS011;12743;52.262;6.172;2023-01-10T15:26:05;26.00;;;3.70;;
24585;SDS011;12743;52.262;6.172;2023-01-10T15:28:36;12.93;;;2.40;;
24585;SDS011;12743;52.262;6.172;2023-01-10T15:31:03;20.92;;;3.22;;
24585;SDS011;12743;52.262;6.172;2023-01-10T15:33:33;20.73;;;2.97;;
24585;SDS011;12743;52.262;6.172;2023-01-10T15:36:06;20.17;;;3.40;;
24585;SDS011;12743;52.262;6.172;2023-01-10T15:38:37;14.50;;;2.13;;
24585;SDS011;12743;52.262;6.172;2023-01-10T15:41:09;21.30;;;2.85;;
24585;SDS011;12743;52.262;6.172;2023-01-10T15:43:43;17.40;;;2.17;;
24585;SDS011;12743;52.262;6.172;2023-01-10T15:46:20;17.10;;;1.97;;
24585;SDS011;12743;52.262;6.172;2023-01-10T15:48:55;13.15;;;1.60;;
24585;SDS011;12743;52.262;6.172;2023-01-10T15:51:38;15.18;;;2.78;;
24585;SDS011;12743;52.262;6.172;2023-01-10T15:54:26;15.50;;;2.38;;
24585;SDS011;12743;52.262;6.172;2023-01-10T15:56:55;20.70;;;2.58;;
24585;SDS011;12743;52.262;6.172;2023-01-10T16:04:38;21.55;;;2.72;;
24585;SDS011;12743;52.262;6.172;2023-01-10T16:07:07;20.48;;;2.25;;
24585;SDS011;12743;52.262;6.172;2023-01-10T16:09:40;20.85;;;2.05;;
24585;SDS011;12743;52.262;6.172;2023-01-10T16:12:22;16.07;;;2.63;;
24585;SDS011;12743;52.262;6.172;2023-01-10T16:15:15;16.80;;;2.00;;
24585;SDS011;12743;52.262;6.172;2023-01-10T16:17:45;17.08;;;2.20;;
24585;SDS011;12743;52.262;6.172;2023-01-10T16:20:12;16.65;;;2.40;;
24585;SDS011;12743;52.262;6.172;2023-01-10T16:22:40;15.07;;;2.25;;
24585;SDS011;12743;52.262;6.172;2023-01-10T16:25:11;20.60;;;2.87;;
24585;SDS011;12743;52.262;6.172;2023-01-10T16:27:40;16.38;;;2.78;;
24585;SDS011;12743;52.262;6.172;2023-01-10T16:30:13;19.70;;;2.13;;
24585;SDS011;12743;52.262;6.172;2023-01-10T16:32:47;11.65;;;1.70;;
24585;SDS011;12743;52.262;6.172;2023-01-10T16:35:15;18.20;;;3.22;;
24585;SDS011;12743;52.262;6.172;2023-01-10T16:37:44;18.37;;;2.60;;
24585;SDS011;12743;52.262;6.172;2023-01-10T16:40:19;19.23;;;2.58;;
24585;SDS011;12743;52.262;6.172;2023-01-10T16:42:46;18.85;;;2.25;;